createdAt,value
2023-05-22T00:00:46.278Z,2.91
2023-05-22T00:01:46.282Z,2.66
2023-05-22T00:02:46.435Z,2.48
2023-05-22T00:03:46.366Z,2.79
2023-05-22T00:04:46.462Z,2.79
2023-05-22T00:05:46.577Z,2.26
2023-05-22T00:06:46.604Z,2.88
2023-05-22T00:07:46.585Z,2.62
2023-05-22T00:08:46.582Z,2.70
2023-05-22T00:09:46.625Z,2.08
2023-05-22T00:10:46.617Z,2.85
2023-05-22T00:11:46.713Z,2.86
2023-05-22T00:12:46.732Z,2.38
2023-05-22T00:13:46.709Z,2.32
2023-05-22T00:14:46.718Z,2.68
2023-05-22T00:15:46.727Z,3.01
2023-05-22T00:16:46.767Z,2.78
2023-05-22T00:17:46.880Z,2.54
2023-05-22T00:18:46.927Z,2.46
2023-05-22T00:19:47.014Z,3.04
2023-05-22T00:20:47.120Z,2.40
2023-05-22T00:21:47.195Z,2.72
2023-05-22T00:22:47.219Z,2.23
2023-05-22T00:23:47.194Z,2.44
2023-05-22T00:24:47.224Z,2.23
2023-05-22T00:25:47.219Z,2.56
2023-05-22T00:26:47.306Z,2.67
2023-05-22T00:27:47.354Z,2.13
2023-05-22T00:28:47.376Z,2.66
2023-05-22T00:29:47.395Z,2.31
2023-05-22T00:30:47.373Z,2.74
2023-05-22T00:31:47.381Z,2.10
2023-05-22T00:32:47.496Z,2.52
2023-05-22T00:33:47.551Z,2.76
2023-05-22T00:34:47.684Z,2.49
2023-05-22T00:35:47.603Z,3.38
2023-05-22T00:36:47.607Z,2.86
2023-05-22T00:37:47.606Z,2.83
2023-05-22T00:38:47.723Z,3.00
2023-05-22T00:39:47.854Z,2.63
2023-05-22T00:40:47.842Z,2.63
2023-05-22T00:41:47.850Z,2.86
2023-05-22T00:42:47.850Z,2.64
2023-05-22T00:43:47.866Z,2.98
2023-05-22T00:44:47.888Z,2.56
2023-05-22T00:45:47.990Z,2.97
2023-05-22T00:46:48.104Z,2.65
2023-05-22T00:47:48.200Z,2.54
2023-05-22T00:48:48.243Z,2.62
2023-05-22T00:49:48.269Z,2.43
2023-05-22T00:50:48.228Z,2.69
2023-05-22T00:51:48.265Z,2.65
2023-05-22T00:52:48.268Z,2.47
2023-05-22T00:53:48.252Z,2.58
2023-05-22T00:54:48.300Z,2.12
2023-05-22T00:55:48.288Z,2.71
2023-05-22T00:56:48.314Z,2.35
2023-05-22T00:57:48.330Z,2.94
2023-05-22T00:58:48.408Z,2.29
2023-05-22T00:59:48.481Z,2.66
2023-05-22T01:00:48.624Z,2.57
2023-05-22T01:01:48.604Z,2.45
2023-05-22T01:02:48.689Z,2.88
2023-05-22T01:03:48.647Z,2.52
2023-05-22T01:04:48.608Z,2.61
2023-05-22T01:05:48.645Z,2.56
2023-05-22T01:06:48.709Z,2.99
2023-05-22T01:07:48.731Z,2.54
2023-05-22T01:08:48.745Z,2.34
2023-05-22T01:09:48.753Z,2.90
2023-05-22T01:10:48.781Z,2.59
2023-05-22T01:11:48.776Z,2.76
2023-05-22T01:12:48.853Z,2.40
2023-05-22T01:13:48.872Z,2.77
2023-05-22T01:14:48.903Z,2.61
2023-05-22T01:15:48.941Z,2.85
2023-05-22T01:16:48.973Z,2.55
2023-05-22T01:17:48.940Z,2.73
2023-05-22T01:18:48.988Z,2.18
2023-05-22T01:19:48.981Z,2.36
2023-05-22T01:20:49.035Z,3.07
2023-05-22T01:21:48.965Z,2.88
2023-05-22T01:22:49.011Z,2.51
2023-05-22T01:23:49.046Z,2.84
2023-05-22T01:24:49.067Z,3.16
2023-05-22T01:25:49.041Z,2.58
2023-05-22T01:26:49.031Z,2.48
2023-05-22T01:27:49.132Z,2.68
2023-05-22T01:28:49.132Z,2.90
2023-05-22T01:29:49.141Z,2.54
2023-05-22T01:30:49.153Z,2.87
2023-05-22T01:31:49.183Z,2.86
2023-05-22T01:32:49.295Z,2.36
2023-05-22T01:33:49.350Z,2.72
2023-05-22T01:34:49.238Z,2.52
2023-05-22T01:35:49.260Z,2.38
2023-05-22T01:36:49.318Z,2.26
2023-05-22T01:37:49.406Z,2.36
2023-05-22T01:38:49.531Z,2.71
2023-05-22T01:39:49.531Z,2.81
2023-05-22T01:40:49.566Z,2.58
2023-05-22T01:41:49.568Z,2.24
2023-05-22T01:42:49.598Z,2.68
2023-05-22T01:43:49.593Z,2.69
2023-05-22T01:44:49.580Z,2.74
2023-05-22T01:45:49.653Z,3.11
2023-05-22T01:46:49.628Z,2.68
2023-05-22T01:47:49.732Z,2.29
2023-05-22T01:48:49.683Z,2.64
2023-05-22T01:49:49.739Z,2.57
2023-05-22T01:50:49.781Z,2.38
2023-05-22T01:51:49.799Z,2.84
2023-05-22T01:52:49.823Z,2.36
2023-05-22T01:53:49.816Z,2.43
2023-05-22T01:54:49.839Z,2.60
2023-05-22T01:55:49.873Z,2.21
2023-05-22T01:56:49.893Z,2.62
2023-05-22T01:57:49.907Z,2.77
2023-05-22T01:58:49.931Z,2.48
2023-05-22T01:59:50.024Z,3.25
2023-05-22T02:00:49.990Z,2.76
2023-05-22T02:01:50.026Z,2.79
2023-05-22T02:02:50.148Z,2.58
2023-05-22T02:03:50.054Z,2.87
2023-05-22T02:04:50.071Z,3.08
2023-05-22T02:05:50.072Z,2.91
2023-05-22T02:06:50.107Z,2.87
2023-05-22T02:07:50.162Z,3.02
2023-05-22T02:08:50.124Z,2.40
2023-05-22T02:09:50.161Z,2.86
2023-05-22T02:10:50.167Z,2.63
2023-05-22T02:11:51.013Z,2.65
2023-05-22T02:12:50.189Z,2.43
2023-05-22T02:13:50.238Z,2.80
2023-05-22T02:14:50.260Z,2.65
2023-05-22T02:15:50.306Z,2.78
2023-05-22T02:16:50.265Z,3.17
2023-05-22T02:17:50.300Z,2.76
2023-05-22T02:18:50.337Z,2.57
2023-05-22T02:19:50.335Z,2.33
2023-05-22T02:20:50.334Z,3.02
2023-05-22T02:21:50.357Z,2.43
2023-05-22T02:22:50.386Z,2.67
2023-05-22T02:23:50.363Z,2.77
2023-05-22T02:24:50.437Z,2.54
2023-05-22T02:25:50.440Z,2.70
2023-05-22T02:26:50.435Z,2.59
2023-05-22T02:27:50.459Z,2.53
2023-05-22T02:28:50.473Z,2.65
2023-05-22T02:29:50.459Z,2.88
2023-05-22T02:30:50.515Z,3.13
2023-05-22T02:31:50.518Z,2.72
2023-05-22T02:32:50.555Z,2.71
2023-05-22T02:33:50.596Z,2.82
2023-05-22T02:34:51.121Z,2.60
2023-05-22T02:35:50.617Z,2.63
2023-05-22T02:36:50.634Z,2.73
2023-05-22T02:37:50.632Z,2.92
2023-05-22T02:38:50.651Z,2.74
2023-05-22T02:39:50.684Z,2.57
2023-05-22T02:40:50.713Z,2.51
2023-05-22T02:41:50.702Z,2.26
2023-05-22T02:42:50.754Z,2.44
2023-05-22T02:43:50.753Z,2.23
2023-05-22T02:44:50.772Z,2.85
2023-05-22T02:45:50.829Z,2.70
2023-05-22T02:46:50.876Z,2.53
2023-05-22T02:47:50.924Z,2.78
2023-05-22T02:48:50.850Z,2.69
2023-05-22T02:49:50.859Z,3.46
2023-05-22T02:50:50.909Z,2.64
2023-05-22T02:51:50.921Z,2.45
2023-05-22T02:52:50.930Z,2.78
2023-05-22T02:53:50.953Z,2.41
2023-05-22T02:54:50.957Z,2.36
2023-05-22T02:55:50.995Z,2.63
2023-05-22T02:56:51.021Z,2.72
2023-05-22T02:57:51.052Z,2.78
2023-05-22T02:58:51.013Z,3.05
2023-05-22T02:59:51.053Z,2.71
2023-05-22T03:00:51.077Z,2.15
2023-05-22T03:01:51.085Z,2.78
2023-05-22T03:02:51.194Z,2.95
2023-05-22T03:03:51.206Z,2.63
2023-05-22T03:04:51.160Z,2.70
2023-05-22T03:05:51.191Z,2.59
2023-05-22T03:06:51.195Z,2.96
2023-05-22T03:07:51.224Z,2.10
2023-05-22T03:08:51.198Z,2.60
2023-05-22T03:09:51.233Z,2.66
2023-05-22T03:10:51.251Z,3.28
2023-05-22T03:11:51.308Z,2.93
2023-05-22T03:12:51.292Z,2.37
2023-05-22T03:13:51.311Z,2.90
2023-05-22T03:14:51.350Z,2.87
2023-05-22T03:15:51.363Z,2.59
2023-05-22T03:16:51.407Z,2.52
2023-05-22T03:17:51.515Z,3.09
2023-05-22T03:18:51.486Z,2.52
2023-05-22T03:19:51.456Z,3.04
2023-05-22T03:20:51.457Z,3.00
2023-05-22T03:21:51.493Z,2.68
2023-05-22T03:22:51.511Z,3.07
2023-05-22T03:23:51.564Z,3.03
2023-05-22T03:24:51.545Z,3.24
2023-05-22T03:25:51.596Z,2.63
2023-05-22T03:26:51.695Z,2.90
2023-05-22T03:27:51.809Z,2.97
2023-05-22T03:28:51.876Z,2.79
2023-05-22T03:29:51.851Z,2.70
2023-05-22T03:30:51.856Z,2.63
2023-05-22T03:31:51.853Z,2.89
2023-05-22T03:32:51.970Z,2.90
2023-05-22T03:33:52.012Z,3.14
2023-05-22T03:34:52.041Z,3.04
2023-05-22T03:35:52.036Z,2.84
2023-05-22T03:36:52.040Z,2.83
2023-05-22T03:37:52.053Z,2.78
2023-05-22T03:38:52.096Z,2.81
2023-05-22T03:39:52.062Z,2.75
2023-05-22T03:40:52.113Z,2.93
2023-05-22T03:41:52.102Z,2.87
2023-05-22T03:42:52.178Z,3.07
2023-05-22T03:43:52.256Z,2.65
2023-05-22T03:44:52.216Z,2.92
2023-05-22T03:45:52.272Z,2.74
2023-05-22T03:46:52.279Z,3.01
2023-05-22T03:47:52.313Z,2.48
2023-05-22T03:48:52.318Z,2.92
2023-05-22T03:49:52.323Z,2.82
2023-05-22T03:50:52.343Z,2.82
2023-05-22T03:51:52.381Z,2.42
2023-05-22T03:52:52.411Z,2.61
2023-05-22T03:53:52.396Z,3.08
2023-05-22T03:54:52.442Z,2.35
2023-05-22T03:55:52.483Z,2.83
2023-05-22T03:56:52.476Z,2.39
2023-05-22T03:57:52.530Z,2.50
2023-05-22T03:58:52.542Z,2.62
2023-05-22T03:59:52.525Z,2.69
2023-05-22T04:00:52.559Z,2.46
2023-05-22T04:01:52.599Z,2.29
2023-05-22T04:02:52.756Z,2.85
2023-05-22T04:03:52.632Z,2.45
2023-05-22T04:04:52.725Z,2.77
2023-05-22T04:05:52.656Z,2.70
2023-05-22T04:06:52.680Z,2.63
2023-05-22T04:07:52.749Z,2.79
2023-05-22T04:08:52.769Z,2.69
2023-05-22T04:09:52.767Z,2.56
2023-05-22T04:10:52.792Z,2.76
2023-05-22T04:11:52.806Z,2.70
2023-05-22T04:12:52.866Z,2.83
2023-05-22T04:13:52.871Z,2.37
2023-05-22T04:14:52.915Z,2.41
2023-05-22T04:15:52.986Z,2.45
2023-05-22T04:16:52.973Z,2.78
2023-05-22T04:17:52.969Z,2.93
2023-05-22T04:18:53.070Z,3.02
2023-05-22T04:19:53.058Z,2.96
2023-05-22T04:20:53.135Z,2.83
2023-05-22T04:21:53.090Z,2.77
2023-05-22T04:22:53.100Z,2.94
2023-05-22T04:23:53.145Z,2.63
2023-05-22T04:24:53.144Z,3.08
2023-05-22T04:25:53.140Z,2.98
2023-05-22T04:26:53.168Z,2.96
2023-05-22T04:27:53.198Z,2.74
2023-05-22T04:28:53.198Z,2.81
2023-05-22T04:29:53.349Z,2.54
2023-05-22T04:30:53.280Z,2.72
2023-05-22T04:31:53.262Z,2.58
2023-05-22T04:32:53.328Z,3.00
2023-05-22T04:33:53.285Z,3.12
2023-05-22T04:34:53.321Z,2.94
2023-05-22T04:35:53.331Z,2.70
2023-05-22T04:36:53.338Z,2.76
2023-05-22T04:37:53.364Z,2.79
2023-05-22T04:38:53.408Z,2.66
2023-05-22T04:39:53.405Z,2.54
2023-05-22T04:40:53.414Z,2.61
2023-05-22T04:41:53.421Z,3.11
2023-05-22T04:42:53.463Z,2.93
2023-05-22T04:43:53.507Z,2.82
2023-05-22T04:44:53.516Z,2.93
2023-05-22T04:45:53.513Z,2.89
2023-05-22T04:46:53.641Z,2.65
2023-05-22T04:47:53.593Z,3.04
2023-05-22T04:48:53.570Z,2.26
2023-05-22T04:49:53.608Z,2.46
2023-05-22T04:50:53.597Z,2.52
2023-05-22T04:51:53.623Z,3.11
2023-05-22T04:52:53.645Z,2.61
2023-05-22T04:53:53.714Z,3.02
2023-05-22T04:54:53.718Z,2.49
2023-05-22T04:55:53.740Z,3.02
2023-05-22T04:56:53.734Z,3.07
2023-05-22T04:57:53.764Z,3.03
2023-05-22T04:58:53.841Z,2.65
2023-05-22T04:59:53.806Z,3.01
2023-05-22T05:00:53.846Z,2.82
2023-05-22T05:01:53.852Z,2.83
2023-05-22T05:02:53.977Z,2.78
2023-05-22T05:03:53.919Z,2.83
2023-05-22T05:04:53.885Z,3.05
2023-05-22T05:05:53.958Z,2.81
2023-05-22T05:06:53.949Z,3.12
2023-05-22T05:07:54.031Z,2.98
2023-05-22T05:08:54.061Z,2.82
2023-05-22T05:09:54.010Z,2.56
2023-05-22T05:10:54.049Z,2.58
2023-05-22T05:11:54.060Z,3.17
2023-05-22T05:12:54.110Z,2.91
2023-05-22T05:13:54.102Z,3.17
2023-05-22T05:14:54.178Z,2.97
2023-05-22T05:15:54.166Z,2.42
2023-05-22T05:16:54.287Z,2.72
2023-05-22T05:17:54.293Z,2.87
2023-05-22T05:18:54.250Z,3.03
2023-05-22T05:19:54.256Z,3.11
2023-05-22T05:20:54.263Z,2.46
2023-05-22T05:21:54.303Z,3.24
2023-05-22T05:22:54.337Z,2.58
2023-05-22T05:23:54.331Z,2.91
2023-05-22T05:24:54.352Z,3.15
2023-05-22T05:25:54.389Z,3.08
2023-05-22T05:26:54.424Z,2.87
2023-05-22T05:27:54.458Z,2.82
2023-05-22T05:28:54.475Z,3.09
2023-05-22T05:29:54.463Z,2.68
2023-05-22T05:30:54.507Z,2.60
2023-05-22T05:31:54.585Z,3.07
2023-05-22T05:32:54.595Z,2.97
2023-05-22T05:33:54.600Z,2.65
2023-05-22T05:34:54.613Z,2.62
2023-05-22T05:35:54.633Z,3.08
2023-05-22T05:36:54.647Z,2.82
2023-05-22T05:37:54.688Z,2.64
2023-05-22T05:38:54.730Z,2.81
2023-05-22T05:39:54.722Z,2.77
2023-05-22T05:40:54.748Z,3.06
2023-05-22T05:41:54.762Z,2.75
2023-05-22T05:42:54.817Z,2.53
2023-05-22T05:43:54.836Z,2.64
2023-05-22T05:44:54.837Z,3.31
2023-05-22T05:45:54.872Z,2.61
2023-05-22T05:46:54.916Z,2.62
2023-05-22T05:47:54.981Z,2.75
2023-05-22T05:48:54.900Z,2.20
2023-05-22T05:49:54.910Z,2.83
2023-05-22T05:50:54.973Z,3.08
2023-05-22T05:51:55.011Z,2.02
2023-05-22T05:52:54.995Z,3.13
2023-05-22T05:53:55.033Z,2.72
2023-05-22T05:54:55.070Z,3.32
2023-05-22T05:55:55.131Z,3.17
2023-05-22T05:56:55.222Z,3.26
2023-05-22T05:58:52.847Z,2.95
2023-05-22T05:59:52.901Z,2.88
2023-05-22T06:00:52.918Z,3.00
2023-05-22T06:01:52.980Z,3.10
2023-05-22T06:02:53.117Z,2.92
2023-05-22T06:03:53.314Z,3.17
2023-05-22T06:04:53.153Z,3.01
2023-05-22T06:05:53.188Z,3.12
2023-05-22T06:06:53.207Z,2.90
2023-05-22T06:07:53.154Z,2.99
2023-05-22T06:08:53.116Z,2.94
2023-05-22T06:09:53.116Z,2.83
2023-05-22T06:10:53.127Z,2.49
2023-05-22T06:11:53.137Z,3.00
2023-05-22T06:12:53.120Z,2.76
2023-05-22T06:13:53.117Z,2.62
2023-05-22T06:14:53.114Z,3.13
2023-05-22T06:15:53.129Z,3.45
2023-05-22T06:16:53.239Z,2.91
2023-05-22T06:19:10.786Z,3.51
2023-05-22T06:20:10.886Z,2.87
2023-05-22T06:21:10.881Z,3.00
2023-05-22T06:22:10.921Z,3.38
2023-05-22T06:23:10.877Z,2.78
2023-05-22T06:24:10.833Z,3.11
2023-05-22T06:25:10.883Z,3.04
2023-05-22T06:26:10.809Z,2.98
2023-05-22T06:27:10.832Z,3.87
2023-05-22T06:28:10.840Z,3.08
2023-05-22T06:29:10.841Z,3.34
2023-05-22T06:30:10.811Z,3.11
2023-05-22T06:31:10.903Z,2.87
2023-05-22T06:32:10.829Z,3.40
2023-05-22T06:33:10.882Z,2.88
2023-05-22T06:34:10.867Z,2.95
2023-05-22T06:35:10.818Z,3.24
2023-05-22T06:36:10.787Z,3.27
2023-05-22T06:37:10.734Z,3.13
2023-05-22T06:38:10.765Z,3.56
2023-05-22T06:39:10.774Z,3.49
2023-05-22T06:40:10.719Z,2.87
2023-05-22T06:41:10.764Z,3.00
2023-05-22T06:42:10.762Z,3.24
2023-05-22T06:43:10.719Z,2.70
2023-05-22T06:44:10.706Z,3.18
2023-05-22T06:45:10.740Z,3.33
2023-05-22T06:46:10.780Z,3.69
2023-05-22T06:47:10.669Z,3.26
2023-05-22T06:48:10.683Z,3.76
2023-05-22T06:49:10.675Z,2.67
2023-05-22T06:50:10.671Z,2.70
2023-05-22T06:51:10.709Z,3.37
2023-05-22T06:52:10.656Z,3.10
2023-05-22T06:53:10.693Z,2.96
2023-05-22T06:54:10.653Z,3.26
2023-05-22T06:55:10.617Z,2.93
2023-05-22T06:56:10.649Z,2.97
2023-05-22T06:57:10.628Z,3.30
2023-05-22T06:58:10.620Z,3.05
2023-05-22T06:59:10.638Z,3.06
2023-05-22T07:00:10.589Z,2.98
2023-05-22T07:01:10.632Z,3.41
2023-05-22T07:02:10.564Z,2.90
2023-05-22T07:03:10.586Z,3.16
2023-05-22T07:04:10.562Z,3.27
2023-05-22T07:05:10.577Z,3.56
2023-05-22T07:06:10.578Z,3.23
2023-05-22T07:07:10.550Z,3.93
2023-05-22T07:08:10.535Z,3.60
2023-05-22T07:09:10.535Z,2.78
2023-05-22T07:10:10.567Z,3.26
2023-05-22T07:11:10.541Z,3.27
2023-05-22T07:12:10.504Z,3.19
2023-05-22T07:13:10.518Z,3.38
2023-05-22T07:14:10.527Z,3.28
2023-05-22T07:15:10.497Z,3.43
2023-05-22T07:16:10.515Z,3.36
2023-05-22T07:17:10.502Z,3.22
2023-05-22T07:18:10.532Z,3.22
2023-05-22T07:19:10.541Z,3.31
2023-05-22T07:20:10.457Z,3.31
2023-05-22T07:21:10.455Z,3.23
2023-05-22T07:22:10.468Z,3.38
2023-05-22T07:23:10.464Z,2.89
2023-05-22T07:24:10.413Z,3.09
2023-05-22T07:25:10.410Z,3.21
2023-05-22T07:26:10.406Z,3.26
2023-05-22T07:27:10.439Z,2.81
2023-05-22T07:28:10.424Z,3.29
2023-05-22T07:29:10.377Z,2.99
2023-05-22T07:30:10.406Z,3.64
2023-05-22T07:31:10.409Z,3.21
2023-05-22T07:32:10.349Z,2.95
2023-05-22T07:33:10.418Z,3.16
2023-05-22T07:34:10.376Z,3.07
2023-05-22T07:35:10.477Z,3.41
2023-05-22T07:36:10.367Z,3.10
2023-05-22T07:37:10.319Z,3.29
2023-05-22T07:38:10.334Z,3.26
2023-05-22T07:39:10.367Z,3.08
2023-05-22T07:40:10.300Z,2.98
2023-05-22T07:41:10.333Z,2.99
2023-05-22T07:42:10.328Z,2.97
2023-05-22T07:43:10.316Z,3.53
2023-05-22T07:44:10.285Z,2.84
2023-05-22T07:45:10.289Z,3.24
2023-05-22T07:46:10.306Z,3.24
2023-05-22T07:47:10.283Z,3.18
2023-05-22T07:48:10.320Z,2.93
2023-05-22T07:49:10.356Z,3.19
2023-05-22T07:50:10.251Z,3.42
2023-05-22T07:51:10.291Z,2.83
2023-05-22T07:52:10.222Z,2.95
2023-05-22T07:53:10.228Z,3.06
2023-05-22T07:54:10.264Z,3.51
2023-05-22T07:55:10.214Z,2.85
2023-05-22T07:56:10.198Z,3.54
2023-05-22T07:57:10.193Z,3.46
2023-05-22T07:58:10.220Z,3.22
2023-05-22T07:59:10.238Z,3.50
2023-05-22T08:00:10.237Z,3.18
2023-05-22T08:01:10.271Z,3.39
2023-05-22T08:02:10.366Z,3.68
2023-05-22T08:03:10.398Z,3.30
2023-05-22T08:04:10.500Z,3.59
2023-05-22T08:05:10.502Z,2.95
2023-05-22T08:06:10.343Z,3.12
2023-05-22T08:07:10.505Z,3.29
2023-05-22T08:08:10.470Z,2.85
2023-05-22T08:09:10.433Z,3.20
2023-05-22T08:10:10.441Z,3.55
2023-05-22T08:11:10.673Z,3.27
2023-05-22T08:12:10.529Z,3.35
2023-05-22T08:13:10.540Z,3.25
2023-05-22T08:14:10.567Z,3.34
2023-05-22T08:15:10.569Z,3.03
2023-05-22T08:16:10.606Z,2.62
2023-05-22T08:17:10.694Z,2.95
2023-05-22T08:19:10.690Z,3.31
2023-05-22T08:20:10.745Z,2.82
2023-05-22T08:21:10.654Z,3.24
2023-05-22T08:22:10.666Z,2.94
2023-05-22T08:23:10.673Z,3.36
2023-05-22T08:24:10.722Z,3.09
2023-05-22T08:25:10.717Z,3.48
2023-05-22T08:26:10.797Z,3.16
2023-05-22T08:27:10.752Z,3.05
2023-05-22T08:28:50.877Z,3.51
2023-05-22T08:29:50.857Z,3.78
2023-05-22T08:30:50.935Z,3.58
2023-05-22T08:31:51.060Z,2.95
2023-05-22T08:32:51.056Z,3.28
2023-05-22T08:33:51.016Z,3.14
2023-05-22T08:34:50.987Z,3.63
2023-05-22T08:35:50.965Z,2.91
2023-05-22T08:36:51.001Z,3.15
2023-05-22T08:37:51.000Z,3.03
2023-05-22T08:38:51.131Z,3.68
2023-05-22T08:39:50.997Z,3.46
2023-05-22T08:40:50.976Z,3.31
2023-05-22T08:41:50.945Z,2.97
2023-05-22T08:42:50.954Z,3.09
2023-05-22T08:43:50.949Z,3.45
2023-05-22T08:44:50.928Z,3.07
2023-05-22T08:45:50.941Z,2.97
2023-05-22T08:46:51.021Z,2.90
2023-05-22T08:47:50.960Z,3.23
2023-05-22T08:48:50.940Z,3.19
2023-05-22T08:49:50.858Z,3.44
2023-05-22T08:50:50.889Z,3.25
2023-05-22T08:51:50.865Z,2.95
2023-05-22T08:52:50.892Z,3.71
2023-05-22T08:53:50.874Z,3.80
2023-05-22T08:54:50.926Z,3.22
2023-05-22T08:55:50.863Z,3.79
2023-05-22T08:56:56.734Z,3.84
2023-05-22T08:57:51.832Z,2.88
2023-05-22T08:58:50.814Z,3.02
2023-05-22T08:59:50.829Z,2.68
2023-05-22T09:00:50.874Z,2.98
2023-05-22T09:01:50.826Z,3.36
2023-05-22T09:02:50.918Z,3.41
2023-05-22T09:03:50.830Z,3.19
2023-05-22T09:04:50.784Z,3.55
2023-05-22T09:05:50.754Z,3.40
2023-05-22T09:06:50.850Z,3.11
2023-05-22T09:07:50.767Z,2.99
2023-05-22T09:08:51.605Z,2.90
2023-05-22T09:09:50.765Z,3.42
2023-05-22T09:10:50.726Z,3.11
2023-05-22T09:11:50.761Z,3.07
2023-05-22T09:12:50.744Z,3.39
2023-05-22T09:13:50.748Z,2.99
2023-05-22T09:14:51.092Z,3.24
2023-05-22T09:15:50.721Z,3.51
2023-05-22T09:16:50.752Z,3.55
2023-05-22T09:17:50.720Z,3.05
2023-05-22T09:18:50.816Z,3.11
2023-05-22T09:19:50.871Z,3.47
2023-05-22T09:20:50.880Z,3.71
2023-05-22T09:21:50.865Z,2.84
2023-05-22T09:22:50.895Z,2.96
2023-05-22T09:23:50.913Z,3.54
2023-05-22T09:24:50.874Z,3.22
2023-05-22T09:25:50.940Z,3.37
2023-05-22T09:26:50.948Z,3.18
2023-05-22T09:27:50.955Z,2.98
2023-05-22T09:28:51.123Z,3.07
2023-05-22T09:29:50.980Z,3.14
2023-05-22T09:30:51.150Z,3.46
2023-05-22T09:31:51.061Z,3.77
2023-05-22T09:32:51.095Z,3.59
2023-05-22T09:33:51.051Z,3.43
2023-05-22T09:34:51.082Z,2.97
2023-05-22T09:35:51.038Z,3.16
2023-05-22T09:36:51.009Z,2.95
2023-05-22T09:37:51.055Z,2.88
2023-05-22T09:38:51.040Z,3.11
2023-05-22T09:39:51.020Z,3.33
2023-05-22T09:40:51.068Z,3.46
2023-05-22T09:41:51.107Z,3.39
2023-05-22T09:42:51.092Z,3.92
2023-05-22T09:43:51.095Z,3.50
2023-05-22T09:44:51.117Z,3.27
2023-05-22T09:45:51.176Z,3.58
2023-05-22T09:46:51.102Z,3.30
2023-05-22T09:47:51.149Z,2.96
2023-05-22T09:48:51.092Z,3.13
2023-05-22T09:49:51.126Z,3.22
2023-05-22T09:50:51.040Z,3.45
2023-05-22T09:51:51.046Z,3.36
2023-05-22T09:52:51.095Z,3.28
2023-05-22T09:53:51.062Z,3.52
2023-05-22T09:54:51.037Z,3.26
2023-05-22T09:55:51.049Z,3.19
2023-05-22T09:56:51.348Z,3.50
2023-05-22T09:57:51.096Z,3.33
2023-05-22T09:58:51.243Z,3.15
2023-05-22T09:59:51.056Z,3.13
2023-05-22T10:00:51.046Z,3.56
2023-05-22T10:01:51.149Z,3.21
2023-05-22T10:02:51.147Z,3.23
2023-05-22T10:03:51.111Z,3.87
2023-05-22T10:04:51.173Z,2.99
2023-05-22T10:05:51.138Z,3.26
2023-05-22T10:06:51.101Z,3.57
2023-05-22T10:07:51.121Z,3.82
2023-05-22T10:08:51.131Z,3.52
2023-05-22T10:09:51.132Z,3.10
2023-05-22T10:10:51.125Z,3.66
2023-05-22T10:11:51.306Z,3.62
2023-05-22T10:12:51.192Z,3.22
2023-05-22T10:13:51.158Z,3.47
2023-05-22T10:14:51.268Z,3.09
2023-05-22T10:15:51.340Z,2.95
2023-05-22T10:16:51.192Z,3.08
2023-05-22T10:17:51.597Z,2.97
2023-05-22T10:18:51.194Z,3.40
2023-05-22T10:19:51.766Z,3.39
2023-05-22T10:20:51.201Z,2.84
2023-05-22T10:21:51.208Z,3.51
2023-05-22T10:22:51.181Z,2.99
2023-05-22T10:23:51.168Z,3.02
2023-05-22T10:24:51.175Z,3.73
2023-05-22T10:25:51.258Z,3.15
2023-05-22T10:26:51.273Z,2.96
2023-05-22T10:27:51.263Z,3.81
2023-05-22T10:28:51.251Z,3.34
2023-05-22T10:29:51.267Z,3.31
2023-05-22T10:30:51.334Z,3.19
2023-05-22T10:31:51.272Z,3.15
2023-05-22T10:32:51.328Z,3.17
2023-05-22T10:33:51.300Z,3.15
2023-05-22T10:34:51.255Z,3.31
2023-05-22T10:35:51.248Z,3.34
2023-05-22T10:36:51.437Z,3.18
2023-05-22T10:37:51.228Z,3.26
2023-05-22T10:38:51.242Z,3.85
2023-05-22T10:39:51.243Z,3.60
2023-05-22T10:40:51.280Z,4.10
2023-05-22T10:41:51.379Z,3.43
2023-05-22T10:42:51.381Z,3.76
2023-05-22T10:43:51.373Z,3.37
2023-05-22T10:44:51.371Z,3.20
2023-05-22T10:45:51.366Z,3.21
2023-05-22T10:46:51.437Z,3.16
2023-05-22T10:47:51.400Z,3.42
2023-05-22T10:48:51.356Z,3.32
2023-05-22T10:49:51.335Z,3.04
2023-05-22T10:50:51.366Z,3.21
2023-05-22T10:51:51.410Z,3.08
2023-05-22T10:52:51.493Z,3.17
2023-05-22T10:53:51.514Z,3.74
2023-05-22T10:54:51.477Z,3.10
2023-05-22T10:55:51.478Z,3.75
2023-05-22T10:56:51.476Z,2.89
2023-05-22T10:57:51.556Z,3.16
2023-05-22T10:58:51.538Z,3.36
2023-05-22T10:59:51.544Z,3.28
2023-05-22T11:00:51.543Z,3.63
2023-05-22T11:01:51.574Z,3.28
2023-05-22T11:02:51.703Z,4.13
2023-05-22T11:03:51.585Z,3.80
2023-05-22T11:04:51.626Z,4.85
2023-05-22T11:05:51.591Z,3.86
2023-05-22T11:06:51.606Z,3.74
2023-05-22T11:07:51.637Z,4.10
2023-05-22T11:08:51.674Z,4.80
2023-05-22T11:09:51.681Z,4.39
2023-05-22T11:10:51.752Z,4.82
2023-05-22T11:11:51.749Z,4.86
2023-05-22T11:12:51.828Z,5.03
2023-05-22T11:13:51.864Z,5.01
2023-05-22T11:14:51.913Z,5.09
2023-05-22T11:15:51.904Z,5.37
2023-05-22T11:16:51.997Z,5.40
2023-05-22T11:17:52.148Z,5.12
2023-05-22T11:18:52.206Z,4.65
2023-05-22T11:19:52.174Z,4.37
2023-05-22T11:20:52.212Z,4.70
2023-05-22T11:21:52.255Z,4.85
2023-05-22T11:22:52.328Z,4.68
2023-05-22T11:23:52.363Z,4.72
2023-05-22T11:24:52.458Z,4.79
2023-05-22T11:25:52.492Z,5.35
2023-05-22T11:26:52.582Z,5.15
2023-05-22T11:27:52.683Z,4.95
2023-05-22T11:28:52.746Z,5.72
2023-05-22T11:29:52.801Z,5.19
2023-05-22T11:30:52.897Z,4.36
2023-05-22T11:31:53.119Z,5.18
2023-05-22T11:32:53.002Z,5.00
2023-05-22T11:33:52.987Z,4.73
2023-05-22T11:34:53.115Z,5.17
2023-05-22T11:35:53.083Z,5.40
2023-05-22T11:36:53.173Z,5.39
2023-05-22T11:37:53.203Z,5.16
2023-05-22T11:38:53.237Z,4.79
2023-05-22T11:39:53.271Z,5.70
2023-05-22T11:40:53.376Z,4.92
2023-05-22T11:41:53.395Z,5.22
2023-05-22T11:42:53.450Z,4.70
2023-05-22T11:43:53.535Z,5.36
2023-05-22T11:44:53.572Z,4.80
2023-05-22T11:45:53.613Z,4.46
2023-05-22T11:46:53.681Z,4.59
2023-05-22T11:47:53.744Z,4.49
2023-05-22T11:48:53.783Z,5.21
2023-05-22T11:49:53.829Z,4.84
2023-05-22T11:50:53.975Z,4.59
2023-05-22T11:51:53.933Z,5.04
2023-05-22T11:52:54.038Z,5.17
2023-05-22T11:53:54.071Z,4.70
2023-05-22T11:54:54.125Z,5.18
2023-05-22T11:55:54.142Z,4.77
2023-05-22T11:56:54.224Z,5.26
2023-05-22T11:57:54.284Z,4.65
2023-05-22T11:58:54.342Z,5.39
2023-05-22T11:59:54.419Z,5.53
2023-05-22T12:00:54.495Z,5.39
2023-05-22T12:01:54.497Z,5.05
2023-05-22T12:02:54.613Z,4.98
2023-05-22T12:03:54.640Z,4.56
2023-05-22T12:04:54.619Z,5.06
2023-05-22T12:05:54.720Z,5.07
2023-05-22T12:06:55.053Z,5.10
2023-05-22T12:07:54.823Z,4.93
2023-05-22T12:08:54.819Z,4.44
2023-05-22T12:09:54.886Z,4.37
2023-05-22T12:10:54.910Z,5.05
2023-05-22T12:11:55.001Z,4.99
2023-05-22T12:12:55.027Z,4.93
2023-05-22T12:13:55.048Z,5.43
2023-05-22T12:14:55.102Z,5.61
2023-05-22T12:15:55.175Z,4.64
2023-05-22T12:16:55.310Z,5.55
2023-05-22T12:17:55.390Z,4.64
2023-05-22T12:18:55.414Z,5.15
2023-05-22T12:19:55.363Z,4.93
2023-05-22T12:20:55.426Z,4.99
2023-05-22T12:21:55.485Z,5.96
2023-05-22T12:22:55.581Z,4.04
2023-05-22T12:23:55.573Z,4.73
2023-05-22T12:24:55.610Z,5.55
2023-05-22T12:25:55.733Z,4.90
2023-05-22T12:26:55.652Z,5.45
2023-05-22T12:27:55.717Z,5.14
2023-05-22T12:28:55.814Z,5.17
2023-05-22T12:29:55.854Z,6.27
2023-05-22T12:30:55.898Z,5.28
2023-05-22T12:31:55.971Z,5.62
2023-05-22T12:32:55.981Z,5.26
2023-05-22T12:33:56.020Z,5.02
2023-05-22T12:34:56.025Z,6.01
2023-05-22T12:35:56.070Z,5.51
2023-05-22T12:36:56.139Z,5.17
2023-05-22T12:37:56.173Z,5.87
2023-05-22T12:38:56.297Z,5.16
2023-05-22T12:39:56.217Z,6.04
2023-05-22T12:40:56.310Z,5.49
2023-05-22T12:41:56.316Z,5.38
2023-05-22T12:42:56.380Z,5.43
2023-05-22T12:43:56.386Z,5.88
2023-05-22T12:44:56.497Z,5.46
2023-05-22T12:45:56.482Z,5.93
2023-05-22T12:46:56.469Z,5.50
2023-05-22T12:47:56.528Z,5.26
2023-05-22T12:48:56.557Z,5.44
2023-05-22T12:49:56.586Z,4.99
2023-05-22T12:50:56.594Z,4.62
2023-05-22T12:51:56.653Z,5.18
2023-05-22T12:52:56.688Z,5.12
2023-05-22T12:53:56.711Z,5.26
2023-05-22T12:54:56.833Z,5.29
2023-05-22T12:55:56.756Z,5.42
2023-05-22T12:56:56.818Z,5.42
2023-05-22T12:57:56.843Z,5.68
2023-05-22T12:58:56.848Z,5.41
2023-05-22T12:59:56.905Z,5.22
2023-05-22T13:00:56.905Z,5.34
2023-05-22T13:01:57.128Z,5.72
2023-05-22T13:02:57.046Z,5.11
2023-05-22T13:03:57.005Z,4.44
2023-05-22T13:04:57.060Z,5.40
2023-05-22T13:05:57.102Z,5.91
2023-05-22T13:06:57.073Z,5.23
2023-05-22T13:07:57.117Z,4.86
2023-05-22T13:08:57.619Z,5.68
2023-05-22T13:09:57.166Z,4.91
2023-05-22T13:10:57.253Z,5.06
2023-05-22T13:11:57.224Z,5.52
2023-05-22T13:12:57.175Z,4.77
2023-05-22T13:13:57.226Z,5.09
2023-05-22T13:14:57.218Z,4.54
2023-05-22T13:15:57.301Z,4.40
2023-05-22T13:16:57.262Z,4.61
2023-05-22T13:17:57.305Z,5.21
2023-05-22T13:18:57.326Z,4.97
2023-05-22T13:19:57.288Z,4.79
2023-05-22T13:20:57.297Z,5.51
2023-05-22T13:21:57.308Z,5.22
2023-05-22T13:22:57.326Z,4.99